Time;durP1;ratioP1;P1;durP2;ratioP2;P2;SDS_P1;SDS_P2;PMS_P1;PMS_P2;Temp;Humidity;BMP_temperature;BMP_pressure;BME280_temperature;BME280_humidity;BME280_pressure;Samples;Min_cycle;Max_cycle;Signal;HPM_P1;HPM_P2
2022/07/19 00:00:13;;;;;;;5.72;2.22;;;24.40;99.90;;;;;;4952964;29;20180;-61
2022/07/19 00:02:40;;;;;;;7.75;2.47;;;24.40;99.90;;;;;;4952570;29;20223;-61
2022/07/19 00:05:07;;;;;;;9.95;2.80;;;24.30;99.90;;;;;;4952670;29;20259;-61
2022/07/19 00:07:33;;;;;;;6.93;2.63;;;24.20;99.90;;;;;;4952594;29;20211;-61
2022/07/19 00:09:59;;;;;;;6.10;2.35;;;24.20;99.90;;;;;;4952685;29;20251;-61
2022/07/19 00:12:25;;;;;;;7.38;2.40;;;24.10;99.90;;;;;;4954704;28;20260;-62
2022/07/19 00:14:51;;;;;;;5.60;2.47;;;24.10;99.90;;;;;;4956097;29;20703;-63
2022/07/19 00:17:17;;;;;;;5.07;2.47;;;24.00;99.90;;;;;;4956394;29;20169;-62
2022/07/19 00:19:43;;;;;;;10.00;2.60;;;24.00;99.90;;;;;;4956191;29;20181;-62
2022/07/19 00:22:08;;;;;;;6.93;2.63;;;24.00;99.90;;;;;;4956238;29;20264;-62
2022/07/19 00:24:34;;;;;;;7.55;2.53;;;24.00;99.90;;;;;;4956166;29;20562;-62
2022/07/19 00:27:00;;;;;;;6.07;2.70;;;23.90;99.90;;;;;;4955978;29;20219;-62
2022/07/19 00:29:26;;;;;;;3.97;2.30;;;23.90;99.90;;;;;;4956082;29;20177;-62
2022/07/19 00:31:52;;;;;;;6.43;2.28;;;24.00;99.90;;;;;;4955989;29;20208;-61
2022/07/19 00:34:18;;;;;;;7.88;2.20;;;24.00;99.90;;;;;;4956084;29;20227;-62
2022/07/19 00:36:43;;;;;;;9.07;2.20;;;23.90;99.90;;;;;;4955932;29;20189;-63
2022/07/19 00:39:09;;;;;;;6.50;2.47;;;23.80;99.90;;;;;;4956028;29;20173;-61
2022/07/19 00:41:42;;;;;;;6.88;2.10;;;23.80;99.90;;;;;;4955804;29;20177;-61
2022/07/19 00:44:09;;;;;;;4.97;2.22;;;23.80;99.90;;;;;;4955802;29;20181;-61
2022/07/19 00:46:35;;;;;;;5.93;2.42;;;23.80;99.90;;;;;;4955539;28;20300;-61
2022/07/19 00:49:01;;;;;;;7.28;2.55;;;23.90;99.90;;;;;;4955700;29;20233;-61
2022/07/19 00:51:28;;;;;;;5.07;2.50;;;23.80;99.90;;;;;;4955666;29;20648;-62
2022/07/19 00:53:56;;;;;;;5.55;2.40;;;23.80;99.90;;;;;;4955570;29;20185;-61
2022/07/19 00:56:24;;;;;;;3.90;2.60;;;23.80;99.90;;;;;;4955545;29;20176;-60
2022/07/19 00:58:51;;;;;;;6.70;2.50;;;23.80;99.90;;;;;;4955503;29;20164;-61
2022/07/19 01:01:18;;;;;;;4.32;2.60;;;23.70;99.90;;;;;;4955390;29;20216;-61
2022/07/19 01:03:44;;;;;;;4.60;2.10;;;23.80;99.90;;;;;;4955383;29;20176;-61
2022/07/19 01:06:10;;;;;;;4.35;2.25;;;23.70;99.90;;;;;;4955283;29;20640;-61
2022/07/19 01:08:37;;;;;;;8.68;2.42;;;23.70;99.90;;;;;;4955278;29;20184;-61
2022/07/19 01:11:05;;;;;;;5.18;2.50;;;23.70;99.90;;;;;;4955392;28;20217;-62
2022/07/19 01:13:31;;;;;;;3.00;2.00;;;23.70;99.90;;;;;;4955238;28;20188;-62
2022/07/19 01:15:58;;;;;;;6.25;2.35;;;23.70;99.90;;;;;;4955042;29;20329;-62
2022/07/19 01:18:23;;;;;;;3.53;2.42;;;23.80;99.90;;;;;;4953945;29;20535;-62
2022/07/19 01:20:51;;;;;;;4.97;2.33;;;23.80;99.90;;;;;;4955284;29;20187;-62
2022/07/19 01:23:17;;;;;;;4.32;2.30;;;23.80;99.90;;;;;;4954987;28;20173;-61
2022/07/19 01:25:43;;;;;;;7.78;2.03;;;23.80;99.90;;;;;;4955162;28;20195;-62
2022/07/19 01:28:09;;;;;;;6.38;2.00;;;23.80;99.90;;;;;;4954956;29;20250;-62
2022/07/19 01:30:36;;;;;;;6.00;2.22;;;23.90;99.90;;;;;;4954880;29;20173;-62
2022/07/19 01:33:03;;;;;;;6.30;2.70;;;23.90;99.90;;;;;;4954877;29;20176;-62
2022/07/19 01:35:29;;;;;;;7.93;2.90;;;24.10;99.90;;;;;;4955035;29;20230;-61
2022/07/19 01:37:55;;;;;;;4.60;2.08;;;23.90;99.90;;;;;;4954730;29;20172;-62
2022/07/19 01:40:22;;;;;;;8.90;2.30;;;24.00;99.90;;;;;;4954822;29;20196;-62
2022/07/19 01:42:48;;;;;;;9.65;2.15;;;24.00;99.90;;;;;;4954706;29;20664;-62
2022/07/19 01:45:15;;;;;;;3.65;2.20;;;24.00;99.90;;;;;;4954732;29;20184;-61
2022/07/19 01:47:42;;;;;;;7.07;2.15;;;24.10;99.90;;;;;;4954551;29;20212;-62
2022/07/19 01:50:09;;;;;;;8.90;2.50;;;24.10;99.90;;;;;;4954490;29;20165;-63
2022/07/19 01:52:35;;;;;;;5.93;2.33;;;24.00;99.90;;;;;;4954504;29;20683;-62
2022/07/19 01:55:01;;;;;;;3.67;2.10;;;23.90;99.90;;;;;;4954492;29;20214;-62
2022/07/19 01:57:28;;;;;;;6.10;2.60;;;23.80;99.90;;;;;;4954454;28;20188;-62
2022/07/19 01:59:54;;;;;;;5.35;2.47;;;23.70;99.90;;;;;;4954421;29;20189;-62
2022/07/19 02:02:20;;;;;;;7.28;2.40;;;23.60;99.90;;;;;;4954382;29;20169;-61
2022/07/19 02:04:46;;;;;;;6.32;2.42;;;23.50;99.90;;;;;;4954236;29;20173;-62
2022/07/19 02:07:12;;;;;;;6.55;2.42;;;23.40;99.90;;;;;;4954167;29;20211;-62
2022/07/19 02:09:38;;;;;;;8.95;2.55;;;23.40;99.90;;;;;;4954393;29;20204;-62
2022/07/19 02:12:04;;;;;;;5.05;2.20;;;23.40;99.90;;;;;;4954208;29;20678;-62
2022/07/19 02:14:30;;;;;;;6.55;2.10;;;23.40;99.90;;;;;;4953940;28;20252;-61
2022/07/19 02:16:55;;;;;;;5.03;2.13;;;23.40;99.90;;;;;;4954101;29;20184;-62
2022/07/19 02:19:21;;;;;;;5.38;2.17;;;23.40;99.90;;;;;;4953978;29;20255;-62
2022/07/19 02:21:47;;;;;;;4.82;2.40;;;23.40;99.90;;;;;;4954255;29;20847;-62
2022/07/19 02:24:14;;;;;;;10.20;2.33;;;23.50;99.90;;;;;;4953900;29;20173;-62
2022/07/19 02:26:40;;;;;;;7.30;1.92;;;23.70;99.90;;;;;;4953878;29;20259;-62
2022/07/19 02:29:06;;;;;;;4.47;2.15;;;23.80;99.90;;;;;;4953857;29;20556;-62
2022/07/19 02:31:33;;;;;;;8.40;2.38;;;23.90;99.90;;;;;;4953843;29;20177;-62
2022/07/19 02:33:59;;;;;;;4.93;2.25;;;23.90;99.90;;;;;;4953293;28;20283;-62
2022/07/19 02:36:25;;;;;;;4.10;2.35;;;24.00;99.90;;;;;;4953592;29;20169;-61
2022/07/19 02:38:51;;;;;;;4.45;2.28;;;24.00;99.90;;;;;;4953746;29;20196;-62
2022/07/19 02:41:17;;;;;;;4.25;2.40;;;25.30;99.90;;;;;;4953555;29;20184;-62
2022/07/19 02:43:44;;;;;;;7.50;2.17;;;24.00;99.90;;;;;;4952375;29;20232;-62
2022/07/19 02:46:09;;;;;;;7.70;2.45;;;24.00;99.90;;;;;;4953496;29;20172;-62
2022/07/19 02:48:35;;;;;;;5.75;2.30;;;24.00;99.90;;;;;;4953483;29;20181;-62
2022/07/19 02:51:01;;;;;;;7.50;2.28;;;24.00;99.90;;;;;;4953579;29;20172;-62
2022/07/19 02:53:27;;;;;;;5.20;2.40;;;23.90;99.90;;;;;;4953457;29;20665;-62
2022/07/19 02:55:53;;;;;;;5.32;2.75;;;23.90;99.90;;;;;;4953545;29;20179;-62
2022/07/19 02:58:19;;;;;;;6.55;2.40;;;24.00;99.90;;;;;;4953434;29;20183;-62
2022/07/19 03:00:45;;;;;;;7.40;2.40;;;24.00;99.90;;;;;;4953359;29;20169;-62
2022/07/19 03:05:56;;;;;;;3.05;2.42;;;24.00;99.90;;;;;;4953579;29;20187;-62
2022/07/19 03:08:22;;;;;;;9.75;2.63;;;24.00;99.90;;;;;;4953228;28;20745;-62
2022/07/19 03:10:48;;;;;;;4.35;2.50;;;24.00;99.90;;;;;;4953265;29;20181;-62
2022/07/19 03:13:14;;;;;;;6.25;2.85;;;24.00;99.90;;;;;;4953282;28;20177;-62
2022/07/19 03:15:39;;;;;;;5.90;2.53;;;23.90;99.90;;;;;;4952935;29;20216;-62
2022/07/19 03:18:05;;;;;;;7.00;2.38;;;23.90;99.90;;;;;;4953116;29;20208;-62
2022/07/19 03:20:32;;;;;;;8.15;2.85;;;23.80;99.90;;;;;;4953201;29;20176;-62
2022/07/19 03:22:58;;;;;;;4.57;2.60;;;23.80;99.90;;;;;;4953120;29;20260;-61
2022/07/19 03:25:24;;;;;;;6.80;2.72;;;23.80;99.90;;;;;;4953056;29;20251;-62
2022/07/19 03:27:50;;;;;;;6.22;2.55;;;23.70;99.90;;;;;;4953044;29;20303;-62
2022/07/19 03:30:15;;;;;;;6.15;2.72;;;23.70;99.90;;;;;;4952941;29;20248;-61
2022/07/19 03:32:41;;;;;;;4.47;2.40;;;23.70;99.90;;;;;;4953021;29;20181;-62
2022/07/19 03:35:08;;;;;;;8.32;3.03;;;23.70;99.90;;;;;;4953040;29;20168;-62
2022/07/19 03:37:34;;;;;;;9.88;2.85;;;23.60;99.90;;;;;;4952882;28;20168;-61
2022/07/19 03:40:00;;;;;;;6.32;2.78;;;23.60;99.90;;;;;;4952860;28;20187;-62
2022/07/19 03:42:26;;;;;;;5.50;2.75;;;23.60;99.90;;;;;;4952845;29;20180;-62
2022/07/19 03:44:51;;;;;;;10.25;2.53;;;23.60;99.90;;;;;;4952800;29;20272;-62
2022/07/19 03:47:17;;;;;;;6.80;2.45;;;23.60;99.90;;;;;;4956411;28;20416;-62
2022/07/19 03:49:43;;;;;;;8.43;2.63;;;23.50;99.90;;;;;;4956832;29;20168;-61
2022/07/19 03:52:09;;;;;;;5.75;2.80;;;23.50;99.90;;;;;;4956719;29;20189;-62
2022/07/19 03:54:35;;;;;;;14.80;2.65;;;23.40;99.90;;;;;;4956637;29;20169;-62
2022/07/19 03:57:01;;;;;;;6.53;2.90;;;23.40;99.90;;;;;;4956593;29;20192;-62
2022/07/19 03:59:27;;;;;;;8.05;2.95;;;23.40;99.90;;;;;;4956503;29;20223;-61
2022/07/19 04:01:52;;;;;;;7.68;2.75;;;23.40;99.90;;;;;;4956556;29;20172;-62
2022/07/19 04:04:18;;;;;;;11.25;3.00;;;23.40;99.90;;;;;;4956659;29;20516;-62
2022/07/19 04:06:44;;;;;;;5.75;2.60;;;23.40;99.90;;;;;;4956388;29;20214;-62
2022/07/19 04:09:10;;;;;;;11.38;2.85;;;23.50;99.90;;;;;;4956478;29;20519;-62
2022/07/19 04:11:36;;;;;;;7.53;2.60;;;23.40;99.90;;;;;;4956358;29;20172;-62
2022/07/19 04:14:02;;;;;;;12.38;2.83;;;23.40;99.90;;;;;;4956301;29;20238;-62
2022/07/19 04:16:28;;;;;;;7.55;2.70;;;23.40;99.90;;;;;;4956112;29;20227;-62
2022/07/19 04:18:54;;;;;;;5.53;2.30;;;23.40;99.90;;;;;;4956204;29;20180;-62
2022/07/19 04:21:20;;;;;;;8.40;2.50;;;23.40;99.90;;;;;;4956258;29;20231;-62
2022/07/19 04:23:46;;;;;;;7.78;2.67;;;23.40;99.90;;;;;;4956105;29;20196;-62
2022/07/19 04:26:12;;;;;;;6.85;2.50;;;23.40;99.90;;;;;;4955959;29;20671;-62
2022/07/19 04:28:38;;;;;;;11.50;2.65;;;23.40;99.90;;;;;;4956039;29;20284;-62
2022/07/19 04:31:04;;;;;;;5.18;2.78;;;23.30;99.90;;;;;;4955989;29;20716;-62
2022/07/19 04:33:29;;;;;;;4.15;2.33;;;23.30;99.90;;;;;;4956123;29;20235;-62
2022/07/19 04:35:55;;;;;;;8.25;2.92;;;23.30;99.90;;;;;;4955912;29;20208;-61
2022/07/19 04:38:22;;;;;;;9.77;2.50;;;23.30;99.90;;;;;;4955947;29;20184;-62
2022/07/19 04:40:48;;;;;;;8.50;2.95;;;23.30;99.90;;;;;;4955885;29;20677;-61
2022/07/19 04:43:15;;;;;;;6.75;2.58;;;23.30;99.90;;;;;;4955821;29;20256;-61
2022/07/19 04:45:41;;;;;;;4.78;2.92;;;23.40;99.90;;;;;;4955744;29;20195;-62
2022/07/19 04:48:08;;;;;;;6.55;2.80;;;23.40;99.90;;;;;;4955741;29;20283;-62
2022/07/19 04:50:34;;;;;;;13.02;2.53;;;23.40;99.90;;;;;;4955823;29;20172;-62
2022/07/19 04:52:59;;;;;;;12.05;3.00;;;23.40;99.90;;;;;;4955712;29;20654;-62
2022/07/19 04:55:25;;;;;;;9.35;2.60;;;23.40;99.90;;;;;;4955487;29;20184;-62
2022/07/19 04:57:54;;;;;;;8.07;2.60;;;23.50;99.90;;;;;;4954987;28;20171;-61
2022/07/19 05:00:20;;;;;;;8.50;3.13;;;23.60;99.90;;;;;;4955501;28;20191;-62
2022/07/19 05:02:46;;;;;;;9.60;2.97;;;23.60;99.90;;;;;;4955476;29;20584;-63
2022/07/19 05:05:12;;;;;;;9.90;3.13;;;23.70;99.90;;;;;;4955536;29;20651;-61
2022/07/19 05:07:38;;;;;;;8.70;3.13;;;23.80;99.90;;;;;;4955342;29;20316;-61
2022/07/19 05:10:05;;;;;;;7.05;2.83;;;23.70;99.90;;;;;;4955433;29;20172;-60
2022/07/19 05:12:31;;;;;;;9.88;2.95;;;23.80;99.90;;;;;;4955339;29;20200;-61
2022/07/19 05:14:58;;;;;;;7.07;2.80;;;23.80;99.90;;;;;;4955154;29;20224;-61
2022/07/19 05:17:24;;;;;;;6.80;2.97;;;23.90;99.90;;;;;;4955187;29;20189;-61
2022/07/19 05:19:50;;;;;;;12.68;6.28;;;23.90;99.90;;;;;;4955139;29;20259;-61
2022/07/19 05:22:16;;;;;;;7.80;3.08;;;23.90;99.90;;;;;;4953685;29;20688;-62
2022/07/19 05:24:42;;;;;;;9.88;3.90;;;24.00;99.90;;;;;;4955120;29;20643;-60
2022/07/19 05:27:08;;;;;;;10.70;3.70;;;24.00;99.90;;;;;;4954889;29;20531;-62
2022/07/19 05:29:33;;;;;;;9.23;3.58;;;24.10;99.90;;;;;;4955062;29;20678;-63
2022/07/19 05:31:59;;;;;;;8.02;3.45;;;24.10;99.90;;;;;;4954940;29;20204;-61
2022/07/19 05:34:25;;;;;;;8.18;3.03;;;24.10;99.90;;;;;;4954842;29;20256;-62
2022/07/19 05:36:51;;;;;;;8.07;2.95;;;24.20;99.90;;;;;;4954837;29;20212;-62
2022/07/19 05:39:17;;;;;;;11.75;3.58;;;24.30;99.90;;;;;;4954699;29;20251;-61
2022/07/19 05:41:44;;;;;;;7.78;2.85;;;24.30;99.90;;;;;;4954693;29;20172;-61
2022/07/19 05:44:10;;;;;;;14.63;2.92;;;24.30;99.90;;;;;;4954900;29;20255;-61
2022/07/19 05:46:40;;;;;;;8.68;3.10;;;24.30;99.90;;;;;;4954607;29;20667;-60
2022/07/19 05:49:08;;;;;;;15.32;3.65;;;24.40;99.90;;;;;;4954627;29;20311;-61
2022/07/19 05:51:35;;;;;;;11.38;3.20;;;24.40;99.90;;;;;;4954571;29;20187;-61
2022/07/19 05:54:01;;;;;;;9.13;3.30;;;24.40;99.90;;;;;;4954419;29;20180;-61
2022/07/19 05:56:27;;;;;;;13.45;3.00;;;24.40;99.90;;;;;;4954395;29;20263;-60
2022/07/19 05:58:53;;;;;;;14.68;2.90;;;24.40;99.90;;;;;;4953147;29;20521;-62
2022/07/19 06:01:19;;;;;;;11.98;3.20;;;24.50;99.90;;;;;;4954248;29;20231;-62
2022/07/19 06:03:47;;;;;;;12.63;3.20;;;24.50;99.90;;;;;;4954478;29;20183;-62
2022/07/19 06:06:13;;;;;;;10.90;2.80;;;24.60;99.90;;;;;;4954225;29;20640;-62
2022/07/19 06:08:40;;;;;;;12.20;3.10;;;24.60;99.90;;;;;;4953677;28;20175;-61
2022/07/19 06:11:05;;;;;;;12.02;3.05;;;24.60;99.90;;;;;;4953822;29;20168;-62
2022/07/19 06:13:31;;;;;;;15.52;3.17;;;24.60;99.90;;;;;;4954148;29;20626;-62
2022/07/19 06:15:57;;;;;;;11.18;3.20;;;24.60;99.90;;;;;;4953984;28;20282;-62
2022/07/19 06:18:23;;;;;;;12.77;3.25;;;24.70;99.90;;;;;;4954055;29;20165;-62
2022/07/19 06:20:49;;;;;;;12.98;3.17;;;24.70;99.90;;;;;;4953881;29;20176;-62
2022/07/19 06:23:14;;;;;;;15.15;3.35;;;24.80;99.90;;;;;;4953885;29;20180;-62
2022/07/19 06:25:40;;;;;;;15.82;3.38;;;24.80;99.90;;;;;;4953870;29;20178;-61
2022/07/19 06:28:06;;;;;;;11.20;3.15;;;24.90;99.90;;;;;;4953914;29;20600;-62
2022/07/19 06:30:32;;;;;;;6.43;3.17;;;25.00;99.90;;;;;;4953799;29;20169;-62
2022/07/19 06:32:58;;;;;;;17.77;3.28;;;25.00;99.90;;;;;;4953769;29;20211;-61
2022/07/19 06:35:24;;;;;;;11.18;2.97;;;25.10;99.90;;;;;;4953824;29;20604;-62
2022/07/19 06:37:50;;;;;;;12.55;3.13;;;25.20;99.90;;;;;;4953641;29;20192;-62
2022/07/19 06:40:16;;;;;;;9.90;3.28;;;25.30;99.90;;;;;;4953809;29;20259;-62
2022/07/19 06:42:42;;;;;;;13.52;3.15;;;25.40;99.90;;;;;;4953736;29;20648;-62
2022/07/19 06:45:08;;;;;;;12.57;3.03;;;25.50;99.90;;;;;;4953750;29;20176;-62
2022/07/19 06:47:34;;;;;;;13.10;3.10;;;25.70;99.90;;;;;;4953552;28;20220;-61
2022/07/19 06:50:00;;;;;;;16.38;2.83;;;25.80;99.90;;;;;;4953410;29;20671;-61
2022/07/19 06:52:26;;;;;;;17.90;3.50;;;25.90;99.90;;;;;;4953514;29;20176;-62
2022/07/19 06:54:52;;;;;;;7.88;2.67;;;26.00;99.90;;;;;;4953523;29;20160;-64
2022/07/19 06:57:18;;;;;;;7.90;2.95;;;26.10;99.90;;;;;;4953436;29;20175;-61
2022/07/19 06:59:44;;;;;;;11.20;3.05;;;26.10;99.90;;;;;;4953524;28;20180;-61
2022/07/19 07:02:09;;;;;;;14.85;3.20;;;26.20;99.90;;;;;;4953460;29;20318;-62
2022/07/19 07:04:35;;;;;;;11.00;3.17;;;26.20;99.90;;;;;;4953359;29;20267;-61
2022/07/19 07:07:01;;;;;;;13.02;3.20;;;26.40;99.90;;;;;;4953224;28;20651;-62
2022/07/19 07:09:27;;;;;;;9.30;3.13;;;26.50;99.90;;;;;;4951831;29;20227;-62
2022/07/19 07:11:53;;;;;;;8.50;3.03;;;26.50;99.90;;;;;;4953154;29;20639;-62
2022/07/19 07:14:19;;;;;;;9.80;2.88;;;26.60;99.90;;;;;;4953231;29;20169;-62
2022/07/19 07:16:45;;;;;;;9.32;2.72;;;26.80;99.90;;;;;;4952848;29;20243;-61
2022/07/19 07:19:10;;;;;;;10.50;2.90;;;26.80;99.90;;;;;;4953114;28;20173;-62
2022/07/19 07:21:36;;;;;;;11.10;2.85;;;26.90;99.90;;;;;;4952811;28;20645;-62
2022/07/19 07:24:03;;;;;;;8.02;2.97;;;27.00;99.90;;;;;;4952932;29;20177;-61
2022/07/19 07:26:29;;;;;;;7.97;3.45;;;27.10;99.90;;;;;;4952801;28;20178;-61
2022/07/19 07:28:55;;;;;;;12.27;2.80;;;27.30;99.90;;;;;;4952954;29;20252;-62
2022/07/19 07:31:21;;;;;;;12.32;3.05;;;27.40;99.90;;;;;;4952808;28;20185;-61
2022/07/19 07:33:47;;;;;;;12.13;2.80;;;27.50;99.90;;;;;;4952898;29;20176;-61
2022/07/19 07:36:13;;;;;;;10.48;3.00;;;27.50;99.90;;;;;;4952727;29;20176;-61
2022/07/19 07:38:38;;;;;;;14.52;3.15;;;27.60;99.90;;;;;;4952931;28;20537;-61
2022/07/19 07:41:05;;;;;;;10.18;2.80;;;27.60;99.90;;;;;;4952742;29;20180;-61
2022/07/19 07:43:31;;;;;;;10.50;3.20;;;27.70;99.90;;;;;;4952724;29;20286;-61
2022/07/19 07:45:57;;;;;;;10.90;3.13;;;27.80;99.90;;;;;;4952741;29;20248;-61
2022/07/19 07:48:23;;;;;;;12.65;2.83;;;27.90;99.90;;;;;;4952646;29;20228;-61
2022/07/19 07:50:49;;;;;;;10.30;3.20;;;27.90;99.90;;;;;;4952778;29;20180;-61
2022/07/19 07:53:15;;;;;;;10.13;3.13;;;27.90;99.90;;;;;;4952845;29;20524;-60
2022/07/19 07:55:41;;;;;;;9.52;2.75;;;28.00;99.90;;;;;;4952797;29;20636;-61
2022/07/19 07:58:11;;;;;;;9.65;2.85;;;28.10;99.90;;;;;;4952673;29;20172;-61
2022/07/19 08:00:38;;;;;;;11.23;2.92;;;28.10;99.90;;;;;;4952663;29;20172;-61
2022/07/19 08:03:04;;;;;;;8.02;3.15;;;28.20;99.90;;;;;;4952566;29;20204;-61
2022/07/19 08:05:30;;;;;;;13.20;3.30;;;28.40;99.90;;;;;;4952615;29;20196;-61
2022/07/19 08:07:56;;;;;;;15.63;3.22;;;28.50;99.90;;;;;;4952646;29;20231;-61
2022/07/19 08:10:24;;;;;;;15.63;3.78;;;28.60;99.90;;;;;;4952597;29;20691;-61
2022/07/19 08:12:50;;;;;;;11.45;2.83;;;28.70;99.90;;;;;;4952613;29;20181;-61
2022/07/19 08:15:16;;;;;;;13.48;3.08;;;28.80;99.90;;;;;;4948276;29;20208;-60
2022/07/19 08:17:42;;;;;;;14.38;3.58;;;28.90;99.90;;;;;;4952473;29;20187;-61
2022/07/19 08:20:10;;;;;;;10.50;2.85;;;29.10;99.90;;;;;;4952559;29;20612;-61
2022/07/19 08:22:36;;;;;;;15.18;3.45;;;29.30;99.90;;;;;;4952471;29;20636;-62
2022/07/19 08:25:03;;;;;;;14.57;3.03;;;29.30;99.90;;;;;;4952556;29;20253;-62
2022/07/19 08:27:28;;;;;;;15.70;3.53;;;29.40;99.90;;;;;;4952543;29;20212;-62
2022/07/19 08:29:54;;;;;;;11.77;3.60;;;29.60;99.90;;;;;;4952540;28;20173;-62
2022/07/19 08:32:20;;;;;;;17.65;3.22;;;29.70;99.90;;;;;;4952855;28;20180;-61
2022/07/19 08:34:46;;;;;;;10.27;3.50;;;29.70;99.90;;;;;;4955917;29;20172;-61
2022/07/19 08:37:12;;;;;;;11.23;3.17;;;29.70;99.90;;;;;;4955917;29;20169;-61
2022/07/19 08:39:38;;;;;;;11.25;3.10;;;30.00;99.90;;;;;;4955898;29;20660;-61
2022/07/19 08:42:04;;;;;;;18.02;3.70;;;30.10;99.90;;;;;;4955831;29;20524;-62
2022/07/19 08:44:31;;;;;;;12.73;3.35;;;30.30;99.90;;;;;;4955717;29;20176;-60
2022/07/19 08:46:58;;;;;;;8.63;3.33;;;30.60;99.90;;;;;;4955617;29;20211;-60
2022/07/19 08:49:24;;;;;;;11.32;3.47;;;30.90;99.90;;;;;;4955772;28;20180;-61
2022/07/19 08:51:51;;;;;;;14.10;3.15;;;31.30;99.90;;;;;;4955648;29;20275;-60
2022/07/19 08:54:19;;;;;;;13.93;3.58;;;31.50;99.90;;;;;;4955561;29;20180;-60
2022/07/19 08:59:30;;;;;;;12.80;3.45;;;31.90;99.90;;;;;;4955547;29;20175;-61
2022/07/19 09:01:57;;;;;;;16.67;3.70;;;32.20;99.90;;;;;;4955431;29;20656;-60
2022/07/19 09:04:25;;;;;;;20.20;3.95;;;31.80;99.90;;;;;;4955423;29;20177;-60
2022/07/19 09:06:55;;;;;;;14.15;3.88;;;32.10;99.90;;;;;;4955471;29;20204;-60
2022/07/19 09:09:29;;;;;;;16.25;4.22;;;32.60;99.90;;;;;;4955313;29;20264;-61
2022/07/19 09:11:57;;;;;;;12.35;4.47;;;32.80;99.90;;;;;;4955039;29;20252;-61
2022/07/19 09:14:27;;;;;;;12.35;3.95;;;33.10;99.90;;;;;;4955526;29;20247;-61
2022/07/19 09:17:12;;;;;;;22.80;4.43;;;32.70;99.90;;;;;;4955070;29;20220;-61
2022/07/19 09:19:42;;;;;;;14.90;3.80;;;32.90;99.90;;;;;;4955035;29;20185;-61
2022/07/19 09:22:13;;;;;;;16.80;4.72;;;32.80;99.90;;;;;;4955238;28;20192;-61
2022/07/19 09:24:48;;;;;;;12.60;3.58;;;33.00;99.90;;;;;;4955119;29;20184;-61
2022/07/19 09:27:19;;;;;;;14.48;3.92;;;33.10;99.90;;;;;;4954823;29;20635;-61
2022/07/19 09:29:51;;;;;;;14.70;3.53;;;33.00;99.90;;;;;;4954845;29;20267;-61
2022/07/19 09:32:20;;;;;;;10.52;4.15;;;33.10;99.90;;;;;;4954841;29;20235;-62
2022/07/19 09:35:03;;;;;;;8.57;3.80;;;33.60;99.90;;;;;;4954793;29;20173;-62
2022/07/19 09:37:32;;;;;;;14.60;3.78;;;33.80;99.90;;;;;;4954859;29;20180;-61
2022/07/19 09:40:02;;;;;;;15.95;4.43;;;33.70;99.90;;;;;;4954909;29;20260;-61
2022/07/19 09:42:42;;;;;;;14.45;3.83;;;33.80;99.90;;;;;;4954844;29;20188;-61
2022/07/19 09:45:12;;;;;;;14.02;4.45;;;33.80;99.90;;;;;;4954370;28;20172;-62
2022/07/19 09:47:42;;;;;;;13.75;4.22;;;33.80;99.90;;;;;;4954417;29;20212;-62
2022/07/19 09:50:14;;;;;;;16.23;3.95;;;33.30;99.90;;;;;;4954573;29;20200;-62
2022/07/19 09:52:40;;;;;;;12.73;4.22;;;33.20;99.90;;;;;;4954762;28;20204;-63
2022/07/19 09:55:09;;;;;;;12.25;4.07;;;33.70;99.90;;;;;;4954590;28;20180;-63
2022/07/19 09:57:38;;;;;;;14.00;3.90;;;33.70;99.90;;;;;;4954428;29;20255;-59
2022/07/19 10:00:06;;;;;;;14.77;3.88;;;33.80;99.90;;;;;;4954451;29;20280;-60
2022/07/19 10:02:36;;;;;;;13.25;3.95;;;34.10;99.90;;;;;;4954525;29;20211;-63
2022/07/19 10:05:06;;;;;;;11.73;4.28;;;34.10;99.90;;;;;;4954446;29;20549;-62
2022/07/19 10:07:33;;;;;;;14.35;4.07;;;34.30;99.90;;;;;;4954204;29;20224;-61
2022/07/19 10:10:03;;;;;;;15.88;4.30;;;34.40;99.90;;;;;;4954308;29;20196;-62
2022/07/19 10:12:29;;;;;;;14.93;4.60;;;34.10;99.90;;;;;;4954126;29;20180;-61
2022/07/19 10:14:56;;;;;;;17.50;4.55;;;34.10;99.90;;;;;;4954210;29;20595;-61
2022/07/19 10:17:28;;;;;;;19.77;5.07;;;34.20;99.90;;;;;;4954146;29;20263;-62
2022/07/19 10:19:55;;;;;;;17.80;4.70;;;34.50;99.90;;;;;;4954174;29;20200;-62
2022/07/19 10:22:25;;;;;;;12.10;4.78;;;34.80;99.90;;;;;;4953998;28;20227;-61
2022/07/19 10:24:59;;;;;;;21.10;4.80;;;34.90;99.90;;;;;;4953977;29;20199;-62
2022/07/19 10:27:24;;;;;;;15.57;4.90;;;34.70;99.90;;;;;;4953823;29;20714;-61
2022/07/19 10:29:56;;;;;;;16.27;4.93;;;34.20;99.90;;;;;;4953945;29;20173;-62
2022/07/19 10:32:29;;;;;;;9.35;4.63;;;34.10;99.90;;;;;;4953831;29;20680;-62
2022/07/19 10:35:20;;;;;;;28.88;4.78;;;34.60;99.90;;;;;;4953759;28;20173;-61
2022/07/19 10:37:51;;;;;;;23.35;5.90;;;34.10;99.90;;;;;;4953815;29;20226;-62
2022/07/19 10:40:42;;;;;;;23.25;4.43;;;34.30;99.90;;;;;;4953751;28;20655;-62
2022/07/19 10:43:15;;;;;;;19.80;5.00;;;33.60;99.90;;;;;;4953721;29;20173;-61
2022/07/19 10:46:02;;;;;;;24.15;4.68;;;33.30;99.90;;;;;;4953479;29;20212;-62
2022/07/19 10:48:40;;;;;;;22.85;5.07;;;33.40;99.90;;;;;;4953310;28;20303;-61
2022/07/19 10:51:10;;;;;;;18.05;4.15;;;33.40;99.90;;;;;;4953489;29;20168;-61
2022/07/19 10:53:42;;;;;;;17.50;5.13;;;33.20;99.90;;;;;;4953487;29;20181;-61
2022/07/19 10:56:15;;;;;;;15.95;4.28;;;33.30;99.90;;;;;;4952746;28;20172;-61
2022/07/19 10:58:53;;;;;;;14.10;4.65;;;33.70;99.90;;;;;;4953334;29;20180;-62
2022/07/19 11:01:20;;;;;;;17.15;5.38;;;33.40;99.90;;;;;;4953346;29;20669;-61
2022/07/19 11:03:47;;;;;;;13.18;4.60;;;33.10;99.90;;;;;;4953462;29;20179;-61
2022/07/19 11:06:24;;;;;;;15.85;4.80;;;33.40;99.90;;;;;;4953114;28;20195;-62
2022/07/19 11:08:56;;;;;;;12.43;4.45;;;33.50;99.90;;;;;;4953381;29;20219;-61
2022/07/19 11:11:23;;;;;;;11.68;4.30;;;33.40;99.90;;;;;;4953267;29;20220;-61
2022/07/19 11:14:00;;;;;;;12.05;4.80;;;33.30;99.90;;;;;;4953199;29;20647;-62
2022/07/19 11:16:27;;;;;;;13.82;4.68;;;33.60;99.90;;;;;;4953025;29;20224;-62
2022/07/19 11:19:06;;;;;;;14.10;4.82;;;33.70;99.90;;;;;;4953145;29;20183;-61
2022/07/19 11:21:34;;;;;;;13.98;4.45;;;33.50;99.90;;;;;;4953185;28;20169;-63
2022/07/19 11:24:01;;;;;;;13.93;5.25;;;33.90;99.90;;;;;;4953281;29;20199;-62
2022/07/19 11:26:37;;;;;;;13.38;5.07;;;34.70;99.90;;;;;;4952988;29;20169;-62
2022/07/19 11:29:04;;;;;;;14.13;5.45;;;35.10;99.90;;;;;;4953076;29;20531;-63
2022/07/19 11:31:30;;;;;;;11.52;4.95;;;;;;;;;;4952901;29;20177;-63
2022/07/19 11:33:56;;;;;;;19.73;5.80;;;37.10;99.90;;;;;;4952986;28;20199;-62
2022/07/19 11:36:24;;;;;;;13.15;5.00;;;37.10;99.90;;;;;;4953019;29;20171;-63
2022/07/19 11:38:55;;;;;;;17.95;5.85;;;37.50;99.90;;;;;;4952961;29;20176;-63
2022/07/19 11:41:27;;;;;;;13.82;5.75;;;37.00;99.90;;;;;;4952955;28;20179;-61
2022/07/19 11:43:59;;;;;;;22.05;5.75;;;37.00;99.90;;;;;;4952813;29;20188;-61
2022/07/19 11:46:37;;;;;;;18.88;6.00;;;37.20;99.90;;;;;;4952912;28;20188;-63
2022/07/19 11:49:04;;;;;;;16.80;6.28;;;37.60;99.90;;;;;;4952872;29;20195;-62
2022/07/19 11:51:31;;;;;;;19.42;8.00;;;37.90;99.90;;;;;;4953080;29;20168;-62
2022/07/19 11:53:59;;;;;;;20.30;9.15;;;38.10;99.90;;;;;;4952761;29;20172;-63
2022/07/19 11:56:27;;;;;;;16.25;9.70;;;38.00;99.90;;;;;;4952668;29;20635;-63
2022/07/19 11:58:57;;;;;;;16.33;8.98;;;37.90;99.90;;;;;;4952884;29;20266;-62
2022/07/19 12:01:35;;;;;;;14.57;9.40;;;38.10;99.90;;;;;;4952691;28;20259;-62
2022/07/19 12:04:04;;;;;;;22.67;10.15;;;38.50;99.90;;;;;;4952712;29;20463;-61
2022/07/19 12:06:45;;;;;;;17.23;9.75;;;38.80;99.90;;;;;;4952649;28;20270;-62
2022/07/19 12:09:13;;;;;;;16.80;8.60;;;39.00;99.90;;;;;;4955877;29;20653;-61
2022/07/19 12:11:42;;;;;;;17.88;9.45;;;39.30;99.90;;;;;;4956367;29;20688;-62
2022/07/19 12:14:18;;;;;;;20.45;8.18;;;39.30;99.90;;;;;;4956403;29;20631;-62
2022/07/19 12:16:44;;;;;;;14.27;8.10;;;40.00;99.90;;;;;;4956158;29;20223;-62
2022/07/19 12:19:14;;;;;;;16.05;7.82;;;39.20;99.90;;;;;;4956283;29;20172;-61
2022/07/19 12:21:41;;;;;;;19.27;7.90;;;38.90;99.90;;;;;;4956086;28;20192;-62
2022/07/19 12:24:16;;;;;;;19.58;7.20;;;38.80;99.90;;;;;;4956357;29;20222;-62
2022/07/19 12:26:55;;;;;;;16.02;7.20;;;38.40;99.90;;;;;;4956164;29;20183;-62
2022/07/19 12:29:35;;;;;;;18.50;7.20;;;38.50;99.90;;;;;;4956197;29;20184;-62
2022/07/19 12:32:04;;;;;;;15.07;6.63;;;38.40;99.90;;;;;;4954618;29;20282;-61
2022/07/19 12:34:41;;;;;;;17.50;7.03;;;38.10;99.90;;;;;;4955942;29;20176;-62
2022/07/19 12:37:28;;;;;;;16.30;6.40;;;38.50;99.90;;;;;;4955997;29;20184;-63
2022/07/19 12:40:05;;;;;;;16.10;6.68;;;39.00;99.90;;;;;;4955967;29;20176;-63
2022/07/19 12:42:44;;;;;;;13.18;6.38;;;39.00;99.90;;;;;;4955765;29;20211;-61
2022/07/19 12:45:22;;;;;;;18.10;5.75;;;39.10;99.90;;;;;;4955896;28;20187;-62
2022/07/19 12:47:50;;;;;;;13.80;5.93;;;39.00;99.90;;;;;;4955745;29;20211;-62